sensor_id;sensor_type;location;lat;lon;timestamp;P1;durP1;ratioP1;P2;durP2;ratioP2
3801;SDS011;1916;51.798;12.246;2023-08-01T00:00:19;6.10;;;4.60;;
3801;SDS011;1916;51.798;12.246;2023-08-01T00:02:22;10.57;;;5.03;;
3801;SDS011;1916;51.798;12.246;2023-08-01T00:04:24;12.50;;;5.10;;
3801;SDS011;1916;51.798;12.246;2023-08-01T00:06:27;10.57;;;4.97;;
3801;SDS011;1916;51.798;12.246;2023-08-01T00:08:29;10.30;;;4.50;;
3801;SDS011;1916;51.798;12.246;2023-08-01T00:10:31;11.20;;;4.77;;
3801;SDS011;1916;51.798;12.246;2023-08-01T00:12:33;7.73;;;4.60;;
3801;SDS011;1916;51.798;12.246;2023-08-01T00:14:36;8.53;;;4.70;;
3801;SDS011;1916;51.798;12.246;2023-08-01T00:16:38;7.30;;;4.80;;
3801;SDS011;1916;51.798;12.246;2023-08-01T00:18:41;7.30;;;4.77;;
3801;SDS011;1916;51.798;12.246;2023-08-01T00:20:43;11.10;;;5.23;;
3801;SDS011;1916;51.798;12.246;2023-08-01T00:22:45;10.93;;;5.33;;
3801;SDS011;1916;51.798;12.246;2023-08-01T00:24:47;11.57;;;5.20;;
3801;SDS011;1916;51.798;12.246;2023-08-01T00:26:49;8.90;;;6.10;;
3801;SDS011;1916;51.798;12.246;2023-08-01T00:28:52;12.80;;;5.63;;
3801;SDS011;1916;51.798;12.246;2023-08-01T00:31:04;10.43;;;6.20;;
3801;SDS011;1916;51.798;12.246;2023-08-01T00:33:12;11.40;;;5.80;;
3801;SDS011;1916;51.798;12.246;2023-08-01T00:35:16;11.07;;;5.80;;
3801;SDS011;1916;51.798;12.246;2023-08-01T00:37:18;9.33;;;6.20;;
3801;SDS011;1916;51.798;12.246;2023-08-01T00:39:21;9.53;;;5.73;;
3801;SDS011;1916;51.798;12.246;2023-08-01T00:41:23;10.20;;;5.87;;
3801;SDS011;1916;51.798;12.246;2023-08-01T00:43:25;9.13;;;5.00;;
3801;SDS011;1916;51.798;12.246;2023-08-01T00:45:27;6.03;;;4.93;;
3801;SDS011;1916;51.798;12.246;2023-08-01T00:47:30;8.90;;;6.07;;
3801;SDS011;1916;51.798;12.246;2023-08-01T00:49:33;9.63;;;5.37;;
3801;SDS011;1916;51.798;12.246;2023-08-01T00:51:36;8.07;;;5.27;;
3801;SDS011;1916;51.798;12.246;2023-08-01T00:53:38;6.70;;;4.73;;
3801;SDS011;1916;51.798;12.246;2023-08-01T00:55:41;7.93;;;5.07;;
3801;SDS011;1916;51.798;12.246;2023-08-01T00:57:43;7.60;;;5.40;;
3801;SDS011;1916;51.798;12.246;2023-08-01T00:59:45;11.17;;;5.23;;
3801;SDS011;1916;51.798;12.246;2023-08-01T01:02:08;8.10;;;5.53;;
3801;SDS011;1916;51.798;12.246;2023-08-01T01:04:11;8.70;;;5.20;;
3801;SDS011;1916;51.798;12.246;2023-08-01T01:08:28;9.40;;;5.10;;
3801;SDS011;1916;51.798;12.246;2023-08-01T01:10:30;7.17;;;5.13;;
3801;SDS011;1916;51.798;12.246;2023-08-01T01:12:34;9.10;;;5.20;;
3801;SDS011;1916;51.798;12.246;2023-08-01T01:14:36;7.77;;;5.00;;
3801;SDS011;1916;51.798;12.246;2023-08-01T01:16:38;9.63;;;5.47;;
3801;SDS011;1916;51.798;12.246;2023-08-01T01:18:41;6.60;;;4.67;;
3801;SDS011;1916;51.798;12.246;2023-08-01T01:20:43;8.40;;;5.53;;
3801;SDS011;1916;51.798;12.246;2023-08-01T01:22:45;6.73;;;5.00;;
3801;SDS011;1916;51.798;12.246;2023-08-01T01:24:47;5.80;;;4.60;;
3801;SDS011;1916;51.798;12.246;2023-08-01T01:26:50;5.40;;;4.80;;
3801;SDS011;1916;51.798;12.246;2023-08-01T01:28:52;10.10;;;5.10;;
3801;SDS011;1916;51.798;12.246;2023-08-01T01:30:55;8.20;;;4.80;;
3801;SDS011;1916;51.798;12.246;2023-08-01T01:32:58;8.40;;;5.17;;
3801;SDS011;1916;51.798;12.246;2023-08-01T01:35:01;8.97;;;4.73;;
3801;SDS011;1916;51.798;12.246;2023-08-01T01:37:04;7.77;;;4.70;;
3801;SDS011;1916;51.798;12.246;2023-08-01T01:39:07;8.10;;;5.27;;
3801;SDS011;1916;51.798;12.246;2023-08-01T01:41:09;6.10;;;4.23;;
3801;SDS011;1916;51.798;12.246;2023-08-01T01:43:13;5.67;;;4.43;;
3801;SDS011;1916;51.798;12.246;2023-08-01T01:45:15;5.60;;;4.50;;
3801;SDS011;1916;51.798;12.246;2023-08-01T01:47:17;6.03;;;4.63;;
3801;SDS011;1916;51.798;12.246;2023-08-01T01:49:19;9.90;;;5.00;;
3801;SDS011;1916;51.798;12.246;2023-08-01T01:51:22;6.57;;;4.20;;
3801;SDS011;1916;51.798;12.246;2023-08-01T01:53:24;8.90;;;4.70;;
3801;SDS011;1916;51.798;12.246;2023-08-01T01:55:26;7.57;;;4.47;;
3801;SDS011;1916;51.798;12.246;2023-08-01T01:57:28;7.60;;;4.63;;
3801;SDS011;1916;51.798;12.246;2023-08-01T01:59:31;6.37;;;4.10;;
3801;SDS011;1916;51.798;12.246;2023-08-01T02:01:33;4.70;;;4.10;;
3801;SDS011;1916;51.798;12.246;2023-08-01T02:03:35;5.90;;;4.20;;
3801;SDS011;1916;51.798;12.246;2023-08-01T02:05:41;6.33;;;4.00;;
3801;SDS011;1916;51.798;12.246;2023-08-01T02:07:43;9.20;;;4.37;;
3801;SDS011;1916;51.798;12.246;2023-08-01T02:09:45;4.90;;;3.50;;
3801;SDS011;1916;51.798;12.246;2023-08-01T02:11:48;13.90;;;4.17;;
3801;SDS011;1916;51.798;12.246;2023-08-01T02:13:50;7.40;;;4.47;;
3801;SDS011;1916;51.798;12.246;2023-08-01T02:15:53;5.20;;;4.20;;
3801;SDS011;1916;51.798;12.246;2023-08-01T02:17:56;7.73;;;4.23;;
3801;SDS011;1916;51.798;12.246;2023-08-01T02:19:58;5.03;;;3.67;;
3801;SDS011;1916;51.798;12.246;2023-08-01T02:22:00;4.40;;;3.73;;
3801;SDS011;1916;51.798;12.246;2023-08-01T02:24:02;6.53;;;3.47;;
3801;SDS011;1916;51.798;12.246;2023-08-01T02:26:05;5.07;;;3.23;;
3801;SDS011;1916;51.798;12.246;2023-08-01T02:28:09;4.60;;;3.40;;
3801;SDS011;1916;51.798;12.246;2023-08-01T02:30:12;5.37;;;2.83;;
3801;SDS011;1916;51.798;12.246;2023-08-01T02:32:14;5.60;;;3.80;;
3801;SDS011;1916;51.798;12.246;2023-08-01T02:34:16;6.70;;;3.23;;
3801;SDS011;1916;51.798;12.246;2023-08-01T02:36:18;4.83;;;3.10;;
3801;SDS011;1916;51.798;12.246;2023-08-01T02:38:20;5.20;;;3.00;;
3801;SDS011;1916;51.798;12.246;2023-08-01T02:40:23;5.20;;;2.70;;
3801;SDS011;1916;51.798;12.246;2023-08-01T02:42:25;3.97;;;3.10;;
3801;SDS011;1916;51.798;12.246;2023-08-01T02:44:27;3.23;;;2.60;;
3801;SDS011;1916;51.798;12.246;2023-08-01T02:46:30;3.40;;;2.90;;
3801;SDS011;1916;51.798;12.246;2023-08-01T02:48:33;5.70;;;2.80;;
3801;SDS011;1916;51.798;12.246;2023-08-01T02:50:37;4.60;;;2.90;;
3801;SDS011;1916;51.798;12.246;2023-08-01T02:52:39;4.77;;;2.90;;
3801;SDS011;1916;51.798;12.246;2023-08-01T02:54:41;6.10;;;4.00;;
3801;SDS011;1916;51.798;12.246;2023-08-01T02:56:43;3.80;;;2.60;;
3801;SDS011;1916;51.798;12.246;2023-08-01T02:58:45;6.20;;;3.27;;
3801;SDS011;1916;51.798;12.246;2023-08-01T03:00:48;3.60;;;2.80;;
3801;SDS011;1916;51.798;12.246;2023-08-01T03:02:50;3.80;;;2.70;;
3801;SDS011;1916;51.798;12.246;2023-08-01T03:04:53;4.20;;;2.93;;
3801;SDS011;1916;51.798;12.246;2023-08-01T03:06:55;3.50;;;3.20;;
3801;SDS011;1916;51.798;12.246;2023-08-01T03:08:57;4.90;;;2.87;;
3801;SDS011;1916;51.798;12.246;2023-08-01T03:10:59;4.80;;;2.90;;
3801;SDS011;1916;51.798;12.246;2023-08-01T03:13:01;3.40;;;2.87;;
3801;SDS011;1916;51.798;12.246;2023-08-01T03:15:03;9.50;;;4.20;;
3801;SDS011;1916;51.798;12.246;2023-08-01T03:17:06;6.50;;;3.07;;
3801;SDS011;1916;51.798;12.246;2023-08-01T03:19:10;4.47;;;3.30;;
3801;SDS011;1916;51.798;12.246;2023-08-01T03:21:12;6.97;;;2.93;;
3801;SDS011;1916;51.798;12.246;2023-08-01T03:23:15;6.70;;;3.20;;
3801;SDS011;1916;51.798;12.246;2023-08-01T03:25:17;4.93;;;3.47;;
3801;SDS011;1916;51.798;12.246;2023-08-01T03:27:19;5.30;;;3.67;;
3801;SDS011;1916;51.798;12.246;2023-08-01T03:29:21;6.07;;;3.10;;
3801;SDS011;1916;51.798;12.246;2023-08-01T03:31:23;5.97;;;4.00;;
3801;SDS011;1916;51.798;12.246;2023-08-01T03:33:25;5.90;;;3.17;;
3801;SDS011;1916;51.798;12.246;2023-08-01T03:35:28;5.77;;;3.40;;
3801;SDS011;1916;51.798;12.246;2023-08-01T03:37:30;5.80;;;3.07;;
3801;SDS011;1916;51.798;12.246;2023-08-01T03:39:32;5.70;;;3.57;;
3801;SDS011;1916;51.798;12.246;2023-08-01T03:41:34;4.50;;;3.33;;
3801;SDS011;1916;51.798;12.246;2023-08-01T03:43:36;7.87;;;4.00;;
3801;SDS011;1916;51.798;12.246;2023-08-01T03:45:39;6.63;;;4.07;;
3801;SDS011;1916;51.798;12.246;2023-08-01T03:47:42;6.33;;;3.80;;
3801;SDS011;1916;51.798;12.246;2023-08-01T03:49:44;9.47;;;3.50;;
3801;SDS011;1916;51.798;12.246;2023-08-01T03:51:46;5.30;;;3.47;;
3801;SDS011;1916;51.798;12.246;2023-08-01T03:53:48;8.43;;;3.70;;
3801;SDS011;1916;51.798;12.246;2023-08-01T03:56:04;4.80;;;3.50;;
3801;SDS011;1916;51.798;12.246;2023-08-01T03:58:06;5.63;;;3.40;;
3801;SDS011;1916;51.798;12.246;2023-08-01T04:00:08;6.73;;;3.60;;
3801;SDS011;1916;51.798;12.246;2023-08-01T04:02:19;6.33;;;3.70;;
3801;SDS011;1916;51.798;12.246;2023-08-01T04:04:21;5.80;;;4.20;;
3801;SDS011;1916;51.798;12.246;2023-08-01T04:06:23;6.37;;;3.50;;
3801;SDS011;1916;51.798;12.246;2023-08-01T04:08:26;5.70;;;3.97;;
3801;SDS011;1916;51.798;12.246;2023-08-01T04:10:28;9.77;;;4.93;;
3801;SDS011;1916;51.798;12.246;2023-08-01T04:12:33;8.50;;;4.43;;
3801;SDS011;1916;51.798;12.246;2023-08-01T04:14:35;6.53;;;3.70;;
3801;SDS011;1916;51.798;12.246;2023-08-01T04:16:37;7.23;;;4.20;;
3801;SDS011;1916;51.798;12.246;2023-08-01T04:18:40;12.53;;;4.10;;
3801;SDS011;1916;51.798;12.246;2023-08-01T04:20:42;7.80;;;4.33;;
3801;SDS011;1916;51.798;12.246;2023-08-01T04:22:44;7.10;;;4.20;;
3801;SDS011;1916;51.798;12.246;2023-08-01T04:24:46;8.00;;;5.00;;
3801;SDS011;1916;51.798;12.246;2023-08-01T04:26:48;7.10;;;4.53;;
3801;SDS011;1916;51.798;12.246;2023-08-01T04:28:50;6.67;;;4.33;;
3801;SDS011;1916;51.798;12.246;2023-08-01T04:30:52;8.13;;;3.60;;
3801;SDS011;1916;51.798;12.246;2023-08-01T04:32:54;9.03;;;4.50;;
3801;SDS011;1916;51.798;12.246;2023-08-01T04:34:56;7.17;;;4.17;;
3801;SDS011;1916;51.798;12.246;2023-08-01T04:36:58;6.23;;;3.90;;
3801;SDS011;1916;51.798;12.246;2023-08-01T04:39:00;6.73;;;3.90;;
3801;SDS011;1916;51.798;12.246;2023-08-01T04:41:03;7.73;;;4.17;;
3801;SDS011;1916;51.798;12.246;2023-08-01T04:43:05;5.30;;;4.30;;
3801;SDS011;1916;51.798;12.246;2023-08-01T04:45:07;4.30;;;3.47;;
3801;SDS011;1916;51.798;12.246;2023-08-01T04:47:10;7.37;;;3.70;;
3801;SDS011;1916;51.798;12.246;2023-08-01T04:49:12;4.50;;;3.63;;
3801;SDS011;1916;51.798;12.246;2023-08-01T04:51:14;4.50;;;3.43;;
3801;SDS011;1916;51.798;12.246;2023-08-01T04:53:16;4.27;;;3.03;;
3801;SDS011;1916;51.798;12.246;2023-08-01T04:55:18;4.37;;;3.30;;
3801;SDS011;1916;51.798;12.246;2023-08-01T04:57:20;3.77;;;3.07;;
3801;SDS011;1916;51.798;12.246;2023-08-01T04:59:22;4.33;;;3.63;;
3801;SDS011;1916;51.798;12.246;2023-08-01T05:01:25;3.40;;;3.07;;
3801;SDS011;1916;51.798;12.246;2023-08-01T05:03:27;4.20;;;2.90;;
3801;SDS011;1916;51.798;12.246;2023-08-01T05:05:29;7.70;;;3.47;;
3801;SDS011;1916;51.798;12.246;2023-08-01T05:07:31;5.37;;;2.80;;
3801;SDS011;1916;51.798;12.246;2023-08-01T05:09:33;4.57;;;2.77;;
3801;SDS011;1916;51.798;12.246;2023-08-01T05:11:35;3.10;;;2.53;;
3801;SDS011;1916;51.798;12.246;2023-08-01T05:13:37;3.57;;;3.13;;
3801;SDS011;1916;51.798;12.246;2023-08-01T05:15:40;13.40;;;3.43;;
3801;SDS011;1916;51.798;12.246;2023-08-01T05:17:42;3.57;;;3.03;;
3801;SDS011;1916;51.798;12.246;2023-08-01T05:19:44;4.07;;;2.73;;
3801;SDS011;1916;51.798;12.246;2023-08-01T05:21:46;4.30;;;2.90;;
3801;SDS011;1916;51.798;12.246;2023-08-01T05:23:48;2.67;;;2.37;;
3801;SDS011;1916;51.798;12.246;2023-08-01T05:25:50;5.60;;;3.17;;
3801;SDS011;1916;51.798;12.246;2023-08-01T05:27:52;4.87;;;2.70;;
3801;SDS011;1916;51.798;12.246;2023-08-01T05:29:54;3.40;;;2.70;;
3801;SDS011;1916;51.798;12.246;2023-08-01T05:31:56;4.07;;;2.80;;
3801;SDS011;1916;51.798;12.246;2023-08-01T05:33:58;2.93;;;2.60;;
3801;SDS011;1916;51.798;12.246;2023-08-01T05:36:00;2.53;;;2.30;;
3801;SDS011;1916;51.798;12.246;2023-08-01T05:38:03;4.07;;;2.40;;
3801;SDS011;1916;51.798;12.246;2023-08-01T05:40:05;4.73;;;2.20;;
3801;SDS011;1916;51.798;12.246;2023-08-01T05:42:07;2.80;;;2.20;;
3801;SDS011;1916;51.798;12.246;2023-08-01T05:44:10;7.53;;;3.00;;
3801;SDS011;1916;51.798;12.246;2023-08-01T05:46:12;4.53;;;2.27;;
3801;SDS011;1916;51.798;12.246;2023-08-01T05:48:14;3.47;;;2.60;;
3801;SDS011;1916;51.798;12.246;2023-08-01T05:50:16;6.30;;;3.03;;
3801;SDS011;1916;51.798;12.246;2023-08-01T05:52:18;2.60;;;2.30;;
3801;SDS011;1916;51.798;12.246;2023-08-01T05:54:20;3.40;;;1.90;;
3801;SDS011;1916;51.798;12.246;2023-08-01T05:56:23;3.20;;;2.27;;
3801;SDS011;1916;51.798;12.246;2023-08-01T05:58:25;3.70;;;2.20;;
3801;SDS011;1916;51.798;12.246;2023-08-01T06:00:30;11.30;;;2.47;;
3801;SDS011;1916;51.798;12.246;2023-08-01T06:02:32;2.53;;;2.10;;
3801;SDS011;1916;51.798;12.246;2023-08-01T06:04:34;5.37;;;3.03;;
3801;SDS011;1916;51.798;12.246;2023-08-01T06:06:37;4.30;;;2.70;;
3801;SDS011;1916;51.798;12.246;2023-08-01T06:08:39;4.40;;;2.40;;
3801;SDS011;1916;51.798;12.246;2023-08-01T06:10:41;2.23;;;2.03;;
3801;SDS011;1916;51.798;12.246;2023-08-01T06:12:44;4.83;;;2.43;;
3801;SDS011;1916;51.798;12.246;2023-08-01T06:14:46;2.60;;;2.00;;
3801;SDS011;1916;51.798;12.246;2023-08-01T06:16:49;4.90;;;2.13;;
3801;SDS011;1916;51.798;12.246;2023-08-01T06:18:51;2.67;;;1.90;;
3801;SDS011;1916;51.798;12.246;2023-08-01T06:20:53;3.50;;;2.07;;
3801;SDS011;1916;51.798;12.246;2023-08-01T06:22:55;4.47;;;2.23;;
3801;SDS011;1916;51.798;12.246;2023-08-01T06:24:57;3.80;;;1.93;;
3801;SDS011;1916;51.798;12.246;2023-08-01T06:26:59;3.73;;;1.90;;
3801;SDS011;1916;51.798;12.246;2023-08-01T06:29:01;3.20;;;1.93;;
3801;SDS011;1916;51.798;12.246;2023-08-01T06:31:04;3.43;;;2.40;;
3801;SDS011;1916;51.798;12.246;2023-08-01T06:33:06;5.70;;;2.07;;
3801;SDS011;1916;51.798;12.246;2023-08-01T06:35:08;3.17;;;1.73;;
3801;SDS011;1916;51.798;12.246;2023-08-01T06:37:10;4.13;;;2.37;;
3801;SDS011;1916;51.798;12.246;2023-08-01T06:39:12;2.63;;;2.03;;
3801;SDS011;1916;51.798;12.246;2023-08-01T06:41:14;2.67;;;2.00;;
3801;SDS011;1916;51.798;12.246;2023-08-01T06:43:16;2.97;;;1.87;;
3801;SDS011;1916;51.798;12.246;2023-08-01T06:45:18;3.57;;;1.90;;
3801;SDS011;1916;51.798;12.246;2023-08-01T06:47:20;2.70;;;2.03;;
3801;SDS011;1916;51.798;12.246;2023-08-01T06:49:22;3.07;;;1.90;;
3801;SDS011;1916;51.798;12.246;2023-08-01T06:51:24;2.13;;;1.70;;
3801;SDS011;1916;51.798;12.246;2023-08-01T06:53:26;1.83;;;1.63;;
3801;SDS011;1916;51.798;12.246;2023-08-01T06:55:28;3.20;;;1.77;;
3801;SDS011;1916;51.798;12.246;2023-08-01T06:57:30;2.10;;;1.60;;
3801;SDS011;1916;51.798;12.246;2023-08-01T06:59:33;1.80;;;1.50;;
3801;SDS011;1916;51.798;12.246;2023-08-01T07:01:35;2.73;;;1.60;;
3801;SDS011;1916;51.798;12.246;2023-08-01T07:03:37;6.27;;;1.60;;
3801;SDS011;1916;51.798;12.246;2023-08-01T07:05:39;4.03;;;1.40;;
3801;SDS011;1916;51.798;12.246;2023-08-01T07:07:41;2.13;;;1.27;;
3801;SDS011;1916;51.798;12.246;2023-08-01T07:09:43;1.53;;;1.23;;
3801;SDS011;1916;51.798;12.246;2023-08-01T07:11:45;1.40;;;1.30;;
3801;SDS011;1916;51.798;12.246;2023-08-01T07:13:47;1.93;;;1.20;;
3801;SDS011;1916;51.798;12.246;2023-08-01T07:15:49;1.40;;;1.30;;
3801;SDS011;1916;51.798;12.246;2023-08-01T07:17:52;1.80;;;1.23;;
3801;SDS011;1916;51.798;12.246;2023-08-01T07:19:54;1.13;;;1.03;;
3801;SDS011;1916;51.798;12.246;2023-08-01T07:21:56;5.40;;;1.30;;
3801;SDS011;1916;51.798;12.246;2023-08-01T07:24:00;1.10;;;1.00;;
3801;SDS011;1916;51.798;12.246;2023-08-01T07:26:02;3.93;;;1.50;;
3801;SDS011;1916;51.798;12.246;2023-08-01T07:28:04;1.20;;;0.97;;
3801;SDS011;1916;51.798;12.246;2023-08-01T07:30:06;1.00;;;0.90;;
3801;SDS011;1916;51.798;12.246;2023-08-01T07:32:09;5.47;;;1.00;;
3801;SDS011;1916;51.798;12.246;2023-08-01T07:34:11;1.30;;;1.00;;
3801;SDS011;1916;51.798;12.246;2023-08-01T07:36:19;1.10;;;0.83;;
3801;SDS011;1916;51.798;12.246;2023-08-01T07:38:23;2.67;;;1.07;;
3801;SDS011;1916;51.798;12.246;2023-08-01T07:40:25;1.10;;;0.90;;
3801;SDS011;1916;51.798;12.246;2023-08-01T07:42:27;1.83;;;0.83;;
3801;SDS011;1916;51.798;12.246;2023-08-01T07:44:30;1.87;;;0.90;;
3801;SDS011;1916;51.798;12.246;2023-08-01T07:46:32;1.47;;;1.10;;
3801;SDS011;1916;51.798;12.246;2023-08-01T07:48:34;1.03;;;1.00;;
3801;SDS011;1916;51.798;12.246;2023-08-01T07:50:36;1.37;;;1.20;;
3801;SDS011;1916;51.798;12.246;2023-08-01T07:52:38;1.23;;;0.90;;
3801;SDS011;1916;51.798;12.246;2023-08-01T07:54:41;3.60;;;1.03;;
3801;SDS011;1916;51.798;12.246;2023-08-01T07:56:43;0.90;;;0.80;;
3801;SDS011;1916;51.798;12.246;2023-08-01T07:58:45;0.90;;;0.90;;
3801;SDS011;1916;51.798;12.246;2023-08-01T08:00:47;1.20;;;1.10;;
3801;SDS011;1916;51.798;12.246;2023-08-01T08:02:50;0.80;;;0.80;;
3801;SDS011;1916;51.798;12.246;2023-08-01T08:04:52;0.80;;;0.80;;
3801;SDS011;1916;51.798;12.246;2023-08-01T08:06:54;1.10;;;1.00;;
3801;SDS011;1916;51.798;12.246;2023-08-01T08:08:57;1.20;;;0.90;;
3801;SDS011;1916;51.798;12.246;2023-08-01T08:10:59;1.37;;;0.80;;
3801;SDS011;1916;51.798;12.246;2023-08-01T08:13:02;1.20;;;1.10;;
3801;SDS011;1916;51.798;12.246;2023-08-01T08:15:05;1.20;;;1.00;;
3801;SDS011;1916;51.798;12.246;2023-08-01T08:17:07;1.87;;;0.80;;
3801;SDS011;1916;51.798;12.246;2023-08-01T08:19:09;6.53;;;0.90;;
3801;SDS011;1916;51.798;12.246;2023-08-01T08:21:11;1.10;;;1.00;;
3801;SDS011;1916;51.798;12.246;2023-08-01T08:23:13;1.10;;;0.83;;
3801;SDS011;1916;51.798;12.246;2023-08-01T08:25:16;2.77;;;0.90;;
3801;SDS011;1916;51.798;12.246;2023-08-01T08:27:18;1.10;;;1.00;;
3801;SDS011;1916;51.798;12.246;2023-08-01T08:29:20;1.40;;;0.90;;
3801;SDS011;1916;51.798;12.246;2023-08-01T08:31:22;2.60;;;0.90;;
3801;SDS011;1916;51.798;12.246;2023-08-01T08:33:24;5.43;;;0.90;;
3801;SDS011;1916;51.798;12.246;2023-08-01T08:35:26;1.17;;;0.90;;
3801;SDS011;1916;51.798;12.246;2023-08-01T08:37:29;1.13;;;0.90;;
3801;SDS011;1916;51.798;12.246;2023-08-01T08:39:31;5.27;;;1.33;;
3801;SDS011;1916;51.798;12.246;2023-08-01T08:41:38;1.50;;;1.20;;
3801;SDS011;1916;51.798;12.246;2023-08-01T08:43:41;0.90;;;0.80;;
3801;SDS011;1916;51.798;12.246;2023-08-01T08:45:43;2.80;;;0.90;;
3801;SDS011;1916;51.798;12.246;2023-08-01T08:47:49;1.83;;;1.10;;
3801;SDS011;1916;51.798;12.246;2023-08-01T08:49:57;1.17;;;1.00;;
3801;SDS011;1916;51.798;12.246;2023-08-01T08:51:59;0.70;;;0.70;;
3801;SDS011;1916;51.798;12.246;2023-08-01T08:54:01;5.00;;;1.10;;
3801;SDS011;1916;51.798;12.246;2023-08-01T08:56:04;1.23;;;1.00;;
3801;SDS011;1916;51.798;12.246;2023-08-01T08:58:10;1.30;;;0.80;;
3801;SDS011;1916;51.798;12.246;2023-08-01T09:00:12;0.77;;;0.70;;
3801;SDS011;1916;51.798;12.246;2023-08-01T09:02:15;1.10;;;0.80;;
3801;SDS011;1916;51.798;12.246;2023-08-01T09:04:18;1.77;;;0.83;;
3801;SDS011;1916;51.798;12.246;2023-08-01T09:06:21;1.10;;;0.87;;
3801;SDS011;1916;51.798;12.246;2023-08-01T09:08:27;0.80;;;0.70;;
3801;SDS011;1916;51.798;12.246;2023-08-01T09:10:31;1.33;;;0.93;;
3801;SDS011;1916;51.798;12.246;2023-08-01T09:12:36;0.90;;;0.90;;
3801;SDS011;1916;51.798;12.246;2023-08-01T09:14:38;1.03;;;0.90;;
3801;SDS011;1916;51.798;12.246;2023-08-01T09:16:40;1.07;;;0.80;;
3801;SDS011;1916;51.798;12.246;2023-08-01T09:18:50;1.20;;;0.70;;
3801;SDS011;1916;51.798;12.246;2023-08-01T09:20:53;1.00;;;0.90;;
3801;SDS011;1916;51.798;12.246;2023-08-01T09:22:55;2.23;;;0.80;;
3801;SDS011;1916;51.798;12.246;2023-08-01T09:24:57;1.73;;;1.10;;
3801;SDS011;1916;51.798;12.246;2023-08-01T09:27:03;2.40;;;0.70;;
3801;SDS011;1916;51.798;12.246;2023-08-01T09:29:08;1.27;;;0.90;;
3801;SDS011;1916;51.798;12.246;2023-08-01T09:31:10;1.00;;;0.90;;
3801;SDS011;1916;51.798;12.246;2023-08-01T09:33:13;2.13;;;1.00;;
3801;SDS011;1916;51.798;12.246;2023-08-01T09:35:15;0.80;;;0.80;;
3801;SDS011;1916;51.798;12.246;2023-08-01T09:37:17;1.03;;;0.93;;
3801;SDS011;1916;51.798;12.246;2023-08-01T09:39:22;0.80;;;0.80;;
3801;SDS011;1916;51.798;12.246;2023-08-01T09:41:24;2.10;;;0.87;;
3801;SDS011;1916;51.798;12.246;2023-08-01T09:43:32;1.00;;;0.80;;
3801;SDS011;1916;51.798;12.246;2023-08-01T09:45:36;2.90;;;0.90;;
3801;SDS011;1916;51.798;12.246;2023-08-01T09:47:38;1.10;;;0.80;;
3801;SDS011;1916;51.798;12.246;2023-08-01T09:49:47;2.00;;;1.00;;
3801;SDS011;1916;51.798;12.246;2023-08-01T09:51:51;2.40;;;1.13;;
3801;SDS011;1916;51.798;12.246;2023-08-01T09:53:54;3.40;;;0.83;;
3801;SDS011;1916;51.798;12.246;2023-08-01T09:55:58;1.00;;;0.90;;
3801;SDS011;1916;51.798;12.246;2023-08-01T09:58:01;0.80;;;0.70;;
3801;SDS011;1916;51.798;12.246;2023-08-01T10:00:05;1.83;;;0.87;;
3801;SDS011;1916;51.798;12.246;2023-08-01T10:02:14;7.47;;;0.97;;
3801;SDS011;1916;51.798;12.246;2023-08-01T10:04:21;2.60;;;0.80;;
3801;SDS011;1916;51.798;12.246;2023-08-01T10:06:32;2.17;;;1.20;;
3801;SDS011;1916;51.798;12.246;2023-08-01T10:08:35;1.17;;;1.07;;
3801;SDS011;1916;51.798;12.246;2023-08-01T10:10:37;1.90;;;1.03;;
3801;SDS011;1916;51.798;12.246;2023-08-01T10:12:43;1.30;;;1.20;;
3801;SDS011;1916;51.798;12.246;2023-08-01T10:14:47;1.87;;;1.00;;
3801;SDS011;1916;51.798;12.246;2023-08-01T10:16:49;3.33;;;1.20;;
3801;SDS011;1916;51.798;12.246;2023-08-01T10:18:53;1.80;;;1.20;;
3801;SDS011;1916;51.798;12.246;2023-08-01T10:20:55;3.00;;;1.20;;
3801;SDS011;1916;51.798;12.246;2023-08-01T10:22:58;1.10;;;1.00;;
3801;SDS011;1916;51.798;12.246;2023-08-01T10:25:01;3.47;;;1.20;;
3801;SDS011;1916;51.798;12.246;2023-08-01T10:27:18;2.33;;;1.90;;
3801;SDS011;1916;51.798;12.246;2023-08-01T10:29:36;1.70;;;1.60;;
3801;SDS011;1916;51.798;12.246;2023-08-01T10:31:38;3.17;;;2.03;;
3801;SDS011;1916;51.798;12.246;2023-08-01T10:33:41;2.17;;;1.97;;
3801;SDS011;1916;51.798;12.246;2023-08-01T10:35:45;2.40;;;2.10;;
3801;SDS011;1916;51.798;12.246;2023-08-01T10:37:47;2.47;;;2.27;;
3801;SDS011;1916;51.798;12.246;2023-08-01T10:39:58;2.93;;;2.50;;
3801;SDS011;1916;51.798;12.246;2023-08-01T10:42:02;2.47;;;2.27;;
3801;SDS011;1916;51.798;12.246;2023-08-01T10:44:07;3.13;;;2.60;;
3801;SDS011;1916;51.798;12.246;2023-08-01T10:46:16;3.13;;;2.83;;
3801;SDS011;1916;51.798;12.246;2023-08-01T10:48:19;5.50;;;2.87;;
3801;SDS011;1916;51.798;12.246;2023-08-01T10:50:21;3.00;;;2.73;;
3801;SDS011;1916;51.798;12.246;2023-08-01T10:52:24;2.83;;;2.57;;
3801;SDS011;1916;51.798;12.246;2023-08-01T10:54:30;3.40;;;3.10;;
3801;SDS011;1916;51.798;12.246;2023-08-01T10:56:33;3.73;;;2.97;;
3801;SDS011;1916;51.798;12.246;2023-08-01T10:58:37;4.10;;;3.40;;
3801;SDS011;1916;51.798;12.246;2023-08-01T11:00:39;2.93;;;2.70;;
3801;SDS011;1916;51.798;12.246;2023-08-01T11:02:41;3.80;;;2.70;;
3801;SDS011;1916;51.798;12.246;2023-08-01T11:04:43;3.03;;;2.73;;
3801;SDS011;1916;51.798;12.246;2023-08-01T11:06:46;3.07;;;2.77;;
3801;SDS011;1916;51.798;12.246;2023-08-01T11:08:48;2.87;;;2.53;;
3801;SDS011;1916;51.798;12.246;2023-08-01T11:10:51;2.90;;;2.27;;
3801;SDS011;1916;51.798;12.246;2023-08-01T11:12:53;2.40;;;1.90;;
3801;SDS011;1916;51.798;12.246;2023-08-01T11:14:59;8.43;;;2.60;;
3801;SDS011;1916;51.798;12.246;2023-08-01T11:17:02;3.60;;;2.50;;
3801;SDS011;1916;51.798;12.246;2023-08-01T11:19:05;3.13;;;2.47;;
3801;SDS011;1916;51.798;12.246;2023-08-01T11:21:08;2.80;;;2.40;;
3801;SDS011;1916;51.798;12.246;2023-08-01T11:23:10;2.87;;;2.07;;
3801;SDS011;1916;51.798;12.246;2023-08-01T11:25:13;3.33;;;2.53;;
3801;SDS011;1916;51.798;12.246;2023-08-01T11:27:15;4.00;;;2.47;;
3801;SDS011;1916;51.798;12.246;2023-08-01T11:29:17;4.50;;;2.40;;
3801;SDS011;1916;51.798;12.246;2023-08-01T11:31:21;2.93;;;2.20;;
3801;SDS011;1916;51.798;12.246;2023-08-01T11:33:23;4.20;;;3.80;;
3801;SDS011;1916;51.798;12.246;2023-08-01T11:35:25;3.23;;;2.60;;
3801;SDS011;1916;51.798;12.246;2023-08-01T11:37:28;2.40;;;2.17;;
3801;SDS011;1916;51.798;12.246;2023-08-01T11:39:31;3.07;;;2.50;;
3801;SDS011;1916;51.798;12.246;2023-08-01T11:41:33;3.93;;;2.30;;
3801;SDS011;1916;51.798;12.246;2023-08-01T11:43:41;3.73;;;2.80;;
3801;SDS011;1916;51.798;12.246;2023-08-01T11:45:51;2.90;;;2.60;;
3801;SDS011;1916;51.798;12.246;2023-08-01T11:47:56;3.37;;;2.50;;
3801;SDS011;1916;51.798;12.246;2023-08-01T11:49:58;2.63;;;2.43;;
3801;SDS011;1916;51.798;12.246;2023-08-01T11:52:01;2.60;;;2.30;;
3801;SDS011;1916;51.798;12.246;2023-08-01T11:54:03;3.30;;;2.83;;
3801;SDS011;1916;51.798;12.246;2023-08-01T11:56:05;3.50;;;2.60;;
3801;SDS011;1916;51.798;12.246;2023-08-01T11:58:08;4.13;;;1.73;;
3801;SDS011;1916;51.798;12.246;2023-08-01T12:00:10;3.30;;;2.50;;
3801;SDS011;1916;51.798;12.246;2023-08-01T12:02:24;2.97;;;2.20;;
3801;SDS011;1916;51.798;12.246;2023-08-01T12:04:27;4.00;;;2.70;;
3801;SDS011;1916;51.798;12.246;2023-08-01T12:06:31;5.40;;;2.83;;
3801;SDS011;1916;51.798;12.246;2023-08-01T12:08:34;2.90;;;2.27;;
3801;SDS011;1916;51.798;12.246;2023-08-01T12:10:40;3.60;;;2.57;;
3801;SDS011;1916;51.798;12.246;2023-08-01T12:12:45;5.10;;;2.67;;
3801;SDS011;1916;51.798;12.246;2023-08-01T12:14:48;3.73;;;2.50;;
3801;SDS011;1916;51.798;12.246;2023-08-01T12:16:50;2.43;;;2.00;;
3801;SDS011;1916;51.798;12.246;2023-08-01T12:18:53;3.37;;;2.20;;
3801;SDS011;1916;51.798;12.246;2023-08-01T12:21:02;4.80;;;2.40;;
3801;SDS011;1916;51.798;12.246;2023-08-01T12:23:07;3.50;;;2.37;;
3801;SDS011;1916;51.798;12.246;2023-08-01T12:25:09;3.73;;;2.33;;
3801;SDS011;1916;51.798;12.246;2023-08-01T12:27:11;3.13;;;2.00;;
3801;SDS011;1916;51.798;12.246;2023-08-01T12:29:14;4.60;;;2.33;;
3801;SDS011;1916;51.798;12.246;2023-08-01T12:31:18;3.53;;;2.40;;
3801;SDS011;1916;51.798;12.246;2023-08-01T12:33:21;6.20;;;2.43;;